createdAt,value
2023-05-22T00:01:46.997Z,100646.52
2023-05-22T00:04:21.676Z,100642.19
2023-05-22T00:06:49.886Z,100638.09
2023-05-22T00:09:18.214Z,100641.09
2023-05-22T00:11:46.422Z,100640.73
2023-05-22T00:14:14.199Z,100639.46
2023-05-22T00:16:42.784Z,100640.59
2023-05-22T00:19:13.835Z,100640.82
2023-05-22T00:21:43.178Z,100637.02
2023-05-22T00:24:11.126Z,100639.30
2023-05-22T00:26:38.927Z,100638.36
2023-05-22T00:29:06.888Z,100638.73
2023-05-22T00:31:34.948Z,100638.85
2023-05-22T00:34:02.865Z,100638.26
2023-05-22T00:36:31.007Z,100643.40
2023-05-22T00:39:02.090Z,100641.88
2023-05-22T00:41:30.802Z,100642.52
2023-05-22T00:43:58.696Z,100639.99
2023-05-22T00:46:26.486Z,100636.17
2023-05-22T00:48:54.547Z,100637.77
2023-05-22T00:51:22.891Z,100639.01
2023-05-22T00:53:52.544Z,100637.81
2023-05-22T00:56:22.071Z,100638.14
2023-05-22T00:58:52.585Z,100632.78
2023-05-22T01:01:20.676Z,100632.63
2023-05-22T01:03:49.235Z,100633.17
2023-05-22T01:06:21.627Z,100635.75
2023-05-22T01:08:49.543Z,100636.48
2023-05-22T01:11:22.436Z,100635.13
2023-05-22T01:13:59.359Z,100637.66
2023-05-22T01:16:42.057Z,100639.91
2023-05-22T01:19:19.345Z,100640.42
2023-05-22T01:22:11.714Z,100642.48
2023-05-22T01:24:46.790Z,100641.89
2023-05-22T01:27:42.378Z,100642.61
2023-05-22T01:30:18.326Z,100641.08
2023-05-22T01:32:47.240Z,100639.33
2023-05-22T01:35:20.261Z,100641.98
2023-05-22T01:37:48.462Z,100642.17
2023-05-22T01:40:17.433Z,100644.55
2023-05-22T01:42:45.999Z,100645.49
2023-05-22T01:45:14.828Z,100642.42
2023-05-22T01:47:43.750Z,100646.47
2023-05-22T01:50:11.966Z,100643.19
2023-05-22T01:52:54.380Z,100644.14
2023-05-22T01:55:43.236Z,100644.31
2023-05-22T01:58:23.208Z,100642.86
2023-05-22T02:00:55.633Z,100644.91
2023-05-22T02:03:25.228Z,100645.63
2023-05-22T02:05:57.769Z,100642.78
2023-05-22T02:08:26.169Z,100640.33
2023-05-22T02:10:56.230Z,100635.73
2023-05-22T02:13:24.599Z,100633.74
2023-05-22T02:15:52.786Z,100635.73
2023-05-22T02:18:20.805Z,100633.82
2023-05-22T02:20:48.936Z,100631.05
2023-05-22T02:23:16.896Z,100631.80
2023-05-22T02:25:45.034Z,100633.40
2023-05-22T02:28:12.705Z,100634.27
2023-05-22T02:30:40.696Z,100640.80
2023-05-22T02:33:09.675Z,100634.84
2023-05-22T02:35:37.574Z,100635.94
2023-05-22T02:38:05.803Z,100636.02
2023-05-22T02:40:36.759Z,100636.93
2023-05-22T02:43:05.130Z,100637.28
2023-05-22T02:45:33.080Z,100637.45
2023-05-22T02:48:06.029Z,100636.16
2023-05-22T02:50:33.952Z,100632.26
2023-05-22T02:53:01.832Z,100628.79
2023-05-22T02:55:29.705Z,100627.64
2023-05-22T02:57:57.817Z,100631.92
2023-05-22T03:00:25.772Z,100631.80
2023-05-22T03:02:53.724Z,100629.70
2023-05-22T03:05:21.599Z,100627.70
2023-05-22T03:07:49.469Z,100630.27
2023-05-22T03:10:17.427Z,100628.19
2023-05-22T03:12:45.340Z,100630.45
2023-05-22T03:15:13.133Z,100631.25
2023-05-22T03:17:41.073Z,100633.32
2023-05-22T03:20:09.379Z,100630.20
2023-05-22T03:22:37.383Z,100631.61
2023-05-22T03:25:06.480Z,100624.42
2023-05-22T03:27:34.492Z,100627.73
2023-05-22T03:30:03.028Z,100624.96
2023-05-22T03:32:30.778Z,100622.55
2023-05-22T03:34:59.112Z,100628.41
2023-05-22T03:37:26.940Z,100629.03
2023-05-22T03:39:54.784Z,100626.64
2023-05-22T03:42:22.867Z,100627.50
2023-05-22T03:44:50.735Z,100629.04
2023-05-22T03:47:18.475Z,100623.19
2023-05-22T03:49:47.145Z,100620.41
2023-05-22T03:52:15.036Z,100620.14
2023-05-22T03:54:42.782Z,100620.52
2023-05-22T03:57:10.731Z,100617.13
2023-05-22T03:59:38.606Z,100618.06
2023-05-22T04:02:06.988Z,100619.63
2023-05-22T04:04:38.666Z,100621.23
2023-05-22T04:07:08.573Z,100619.27
2023-05-22T04:09:36.783Z,100618.39
2023-05-22T04:12:05.014Z,100613.30
2023-05-22T04:14:33.262Z,100614.64
2023-05-22T04:17:01.171Z,100616.54
2023-05-22T04:19:30.348Z,100620.59
2023-05-22T04:21:59.087Z,100619.91
2023-05-22T04:24:27.878Z,100619.61
2023-05-22T04:26:56.403Z,100617.10
2023-05-22T04:29:24.803Z,100616.78
2023-05-22T04:31:54.650Z,100620.35
2023-05-22T04:34:22.874Z,100617.91
2023-05-22T04:36:56.239Z,100616.64
2023-05-22T04:39:26.478Z,100618.94
2023-05-22T04:41:54.523Z,100617.04
2023-05-22T04:44:23.127Z,100619.63
2023-05-22T04:46:51.393Z,100616.95
2023-05-22T04:49:19.124Z,100613.92
2023-05-22T04:51:46.996Z,100610.76
2023-05-22T04:54:14.751Z,100616.61
2023-05-22T04:56:42.607Z,100619.58
2023-05-22T04:59:10.371Z,100619.20
2023-05-22T05:01:38.651Z,100618.80
2023-05-22T05:04:06.805Z,100618.89
2023-05-22T05:06:34.879Z,100620.51
2023-05-22T05:09:03.113Z,100622.19
2023-05-22T05:11:31.017Z,100623.17
2023-05-22T05:13:58.769Z,100625.84
2023-05-22T05:16:26.770Z,100622.05
2023-05-22T05:18:55.805Z,100620.83
2023-05-22T05:21:28.028Z,100620.10
2023-05-22T05:23:55.998Z,100618.80
2023-05-22T05:26:24.233Z,100615.40
2023-05-22T05:28:52.064Z,100617.67
2023-05-22T05:31:20.890Z,100619.79
2023-05-22T05:33:49.228Z,100622.30
2023-05-22T05:36:16.928Z,100625.16
2023-05-22T05:38:44.821Z,100622.90
2023-05-22T05:41:12.769Z,100622.54
2023-05-22T05:43:40.516Z,100618.84
2023-05-22T05:46:08.523Z,100617.02
2023-05-22T05:48:36.283Z,100613.74
2023-05-22T05:51:05.334Z,100611.85
2023-05-22T05:53:33.577Z,100608.16
2023-05-22T05:56:01.564Z,100609.88
2023-05-22T05:58:29.364Z,100611.90
2023-05-22T06:00:57.576Z,100613.16
2023-05-22T06:03:28.217Z,100613.27
2023-05-22T06:05:57.775Z,100616.14
2023-05-22T06:08:25.527Z,100612.40
2023-05-22T06:10:53.357Z,100609.17
2023-05-22T06:13:21.264Z,100606.62
2023-05-22T06:15:49.031Z,100602.88
2023-05-22T06:18:17.603Z,100601.42
2023-05-22T06:20:45.472Z,100600.86
2023-05-22T06:23:13.410Z,100604.48
2023-05-22T06:25:41.357Z,100604.20
2023-05-22T06:28:09.373Z,100605.65
2023-05-22T06:30:40.166Z,100608.60
2023-05-22T06:33:09.258Z,100607.24
2023-05-22T07:03:10.406Z,100608.63
2023-05-22T07:05:38.391Z,100614.98
2023-05-22T07:08:06.555Z,100610.78
2023-05-22T07:10:34.501Z,100605.02
2023-05-22T07:13:02.284Z,100600.41
2023-05-22T07:15:30.059Z,100601.23
2023-05-22T07:17:58.161Z,100603.35
2023-05-22T07:20:26.477Z,100603.86
2023-05-22T07:22:54.246Z,100602.83
2023-05-22T07:25:22.080Z,100606.30
2023-05-22T07:27:49.848Z,100606.15
2023-05-22T07:30:17.755Z,100605.20
2023-05-22T07:32:46.379Z,100603.43
2023-05-22T07:35:14.365Z,100602.12
2023-05-22T07:37:42.140Z,100599.79
2023-05-22T07:40:11.368Z,100601.20
2023-05-22T07:42:39.321Z,100602.73
2023-05-22T07:45:07.616Z,100597.65
2023-05-22T07:47:35.794Z,100597.08
2023-05-22T07:50:04.792Z,100597.09
2023-05-22T07:52:33.059Z,100591.17
2023-05-22T07:55:01.014Z,100587.67
2023-05-22T07:57:29.994Z,100590.57
2023-05-22T07:59:59.316Z,100588.48
2023-05-22T08:02:27.519Z,100592.83
2023-05-22T08:04:55.794Z,100591.13
2023-05-22T08:07:25.773Z,100586.06
2023-05-22T08:09:53.792Z,100584.52
2023-05-22T08:12:21.618Z,100582.81
2023-05-22T08:14:49.536Z,100584.45
2023-05-22T08:17:17.696Z,100584.30
2023-05-22T08:19:46.157Z,100580.39
2023-05-22T08:22:14.199Z,100580.80
2023-05-22T08:24:42.077Z,100577.56
2023-05-22T08:27:10.038Z,100577.80
2023-05-22T08:29:38.009Z,100578.36
2023-05-22T08:32:06.264Z,100577.30
2023-05-22T08:34:34.380Z,100580.76
2023-05-22T08:37:02.280Z,100580.77
2023-05-22T08:39:31.549Z,100582.45
2023-05-22T08:41:59.459Z,100577.94
2023-05-22T08:44:27.345Z,100570.40
2023-05-22T08:46:56.922Z,100574.53
2023-05-22T08:49:27.333Z,100569.36
2023-05-22T08:52:05.569Z,100567.30
2023-05-22T08:54:34.646Z,100562.95
2023-05-22T08:57:03.129Z,100560.44
2023-05-22T08:59:31.042Z,100557.59
2023-05-22T09:01:59.132Z,100556.38
2023-05-22T09:04:28.555Z,100556.48
2023-05-22T09:06:56.587Z,100554.87
2023-05-22T09:09:24.940Z,100551.53
2023-05-22T09:11:54.900Z,100548.40
2023-05-22T09:14:22.864Z,100545.23
2023-05-22T09:16:53.099Z,100542.09
2023-05-22T09:19:21.514Z,100535.54
2023-05-22T09:21:49.523Z,100530.72
2023-05-22T09:24:17.380Z,100534.80
2023-05-22T09:26:45.350Z,100532.23
2023-05-22T09:29:13.131Z,100536.75
2023-05-22T09:31:42.958Z,100537.94
2023-05-22T09:34:14.373Z,100535.95
2023-05-22T09:36:42.690Z,100530.02
2023-05-22T09:39:11.188Z,100530.59
2023-05-22T09:41:40.137Z,100527.79
2023-05-22T09:44:15.616Z,100526.84
2023-05-22T09:46:47.488Z,100527.58
2023-05-22T09:49:17.435Z,100526.66
2023-05-22T09:51:49.233Z,100523.81
2023-05-22T09:54:19.745Z,100526.52
2023-05-22T09:56:51.641Z,100519.45
2023-05-22T09:59:21.926Z,100515.24
2023-05-22T10:01:49.685Z,100508.58
2023-05-22T10:04:18.901Z,100503.98
2023-05-22T10:06:51.262Z,100502.93
2023-05-22T10:09:22.608Z,100503.59
2023-05-22T10:11:53.948Z,100502.96
2023-05-22T10:14:22.580Z,100498.22
2023-05-22T10:16:51.602Z,100500.32
2023-05-22T10:19:19.652Z,100501.28
2023-05-22T10:21:48.297Z,100496.59
2023-05-22T10:24:16.326Z,100493.33
2023-05-22T10:26:44.709Z,100493.23
2023-05-22T10:29:17.128Z,100493.74
2023-05-22T10:32:14.820Z,100493.77
2023-05-22T10:34:54.540Z,100488.98
2023-05-22T10:37:29.964Z,100487.66
2023-05-22T10:40:05.089Z,100491.55
2023-05-22T10:42:33.342Z,100490.61
2023-05-22T10:45:04.678Z,100491.48
2023-05-22T10:47:36.222Z,100491.57
2023-05-22T10:50:11.637Z,100489.81
2023-05-22T10:52:40.190Z,100488.38
2023-05-22T10:55:09.439Z,100485.94
2023-05-22T10:57:42.369Z,100482.98
2023-05-22T11:00:15.806Z,100479.74
2023-05-22T11:02:45.811Z,100477.32
2023-05-22T11:05:23.178Z,100476.54
2023-05-22T11:07:51.369Z,100476.47
2023-05-22T11:10:51.928Z,100474.35
2023-05-22T11:13:20.155Z,100473.98
2023-05-22T11:15:48.532Z,100475.41
2023-05-22T11:18:17.214Z,100475.45
2023-05-22T11:20:46.852Z,100473.21
2023-05-22T11:23:15.502Z,100472.11
2023-05-22T11:25:43.365Z,100468.98
2023-05-22T11:28:12.144Z,100470.73
2023-05-22T11:30:40.289Z,100466.77
2023-05-22T11:33:08.559Z,100469.29
2023-05-22T11:35:38.029Z,100461.36
2023-05-22T11:38:07.363Z,100465.13
2023-05-22T11:40:35.579Z,100457.83
2023-05-22T11:43:04.825Z,100452.19
2023-05-22T11:45:37.582Z,100450.73
2023-05-22T11:48:05.825Z,100452.63
2023-05-22T11:50:42.516Z,100449.44
2023-05-22T11:53:11.129Z,100451.11
2023-05-22T11:55:39.029Z,100447.04
2023-05-22T11:58:06.864Z,100453.05
2023-05-22T12:00:34.801Z,100441.95
2023-05-22T12:03:03.115Z,100444.00
2023-05-22T12:05:32.376Z,100442.52
2023-05-22T12:08:00.200Z,100438.09
2023-05-22T12:10:28.078Z,100444.48
2023-05-22T12:12:56.231Z,100441.20
2023-05-22T12:15:24.817Z,100433.95
2023-05-22T12:17:55.480Z,100437.71
2023-05-22T12:20:23.373Z,100433.30
2023-05-22T12:22:51.198Z,100429.55
2023-05-22T12:25:20.372Z,100427.95
2023-05-22T12:27:48.538Z,100432.25
2023-05-22T12:30:17.294Z,100427.34
2023-05-22T12:32:51.721Z,100427.65
2023-05-22T12:35:19.956Z,100422.89
2023-05-22T12:37:49.448Z,100419.46
2023-05-22T12:40:17.610Z,100425.11
2023-05-22T12:42:45.598Z,100422.40
2023-05-22T12:45:14.102Z,100425.48
2023-05-22T12:47:42.026Z,100419.84
2023-05-22T12:50:10.416Z,100415.48
2023-05-22T12:52:38.228Z,100416.47
2023-05-22T12:55:06.596Z,100419.91
2023-05-22T12:57:34.690Z,100417.52
2023-05-22T13:00:02.724Z,100415.23
2023-05-22T13:02:30.737Z,100415.30
2023-05-22T13:04:59.491Z,100411.71
2023-05-22T13:07:27.576Z,100407.02
2023-05-22T13:09:55.453Z,100404.99
2023-05-22T13:12:23.849Z,100404.05
2023-05-22T13:14:51.850Z,100404.74
2023-05-22T13:17:19.703Z,100403.77
2023-05-22T13:19:47.870Z,100398.67
2023-05-22T13:22:15.966Z,100393.34
2023-05-22T13:24:43.852Z,100389.96
2023-05-22T13:27:12.138Z,100390.58
2023-05-22T13:29:40.012Z,100383.02
2023-05-22T13:32:07.946Z,100379.35
2023-05-22T13:34:35.862Z,100377.77
2023-05-22T13:37:04.338Z,100377.89
2023-05-22T13:39:32.106Z,100379.55
2023-05-22T13:42:00.815Z,100372.90
2023-05-22T13:44:28.612Z,100370.50
2023-05-22T13:46:56.613Z,100366.81
2023-05-22T13:49:24.520Z,100362.06
2023-05-22T13:51:52.583Z,100358.16
2023-05-22T13:54:20.689Z,100352.35
2023-05-22T13:56:48.586Z,100350.41
2023-05-22T13:59:16.468Z,100351.52
2023-05-22T14:01:44.309Z,100346.55
2023-05-22T14:04:12.265Z,100344.92
2023-05-22T14:06:40.068Z,100347.40
2023-05-22T14:09:09.625Z,100344.83
2023-05-22T14:11:37.583Z,100341.51
2023-05-22T14:14:05.636Z,100340.87
2023-05-22T14:16:33.691Z,100340.63
2023-05-22T14:19:01.919Z,100341.65
2023-05-22T14:21:31.154Z,100338.85
2023-05-22T14:23:59.168Z,100335.08
2023-05-22T14:26:27.894Z,100339.45
2023-05-22T14:28:55.812Z,100333.83
2023-05-22T14:31:23.804Z,100333.85
2023-05-22T14:33:51.858Z,100330.95
2023-05-22T14:36:19.638Z,100330.46
2023-05-22T14:38:47.574Z,100327.45
2023-05-22T14:41:16.516Z,100325.02
2023-05-22T14:43:44.315Z,100328.37
2023-05-22T14:46:12.729Z,100327.68
2023-05-22T14:48:40.707Z,100321.86
2023-05-22T14:51:08.569Z,100320.92
2023-05-22T14:53:36.380Z,100318.98
2023-05-22T14:56:04.132Z,100322.50
2023-05-22T14:58:32.229Z,100314.10
2023-05-22T15:01:00.000Z,100318.84
2023-05-22T15:03:27.877Z,100320.61
2023-05-22T15:05:55.752Z,100315.55
2023-05-22T15:08:23.709Z,100312.80
2023-05-22T15:10:51.943Z,100309.54
2023-05-22T15:13:19.790Z,100307.55
2023-05-22T15:15:47.756Z,100303.00
2023-05-22T15:18:16.538Z,100300.02
2023-05-22T15:20:44.563Z,100297.70
2023-05-22T15:23:12.323Z,100295.23
2023-05-22T15:25:40.598Z,100289.55
2023-05-22T15:28:08.704Z,100289.13
2023-05-22T15:30:38.895Z,100281.60
2023-05-22T15:33:07.347Z,100283.75
2023-05-22T15:35:35.160Z,100280.39
2023-05-22T15:38:03.653Z,100275.60
2023-05-22T15:40:31.692Z,100273.00
2023-05-22T15:43:02.071Z,100273.63
2023-05-22T15:45:30.809Z,100272.98
2023-05-22T15:47:58.870Z,100268.68
2023-05-22T15:50:26.935Z,100265.07
2023-05-22T15:52:54.811Z,100261.01
2023-05-22T15:55:22.584Z,100258.21
2023-05-22T15:57:50.559Z,100257.80
2023-05-22T16:00:21.177Z,100259.25
2023-05-22T16:02:49.739Z,100256.75
2023-05-22T16:05:17.932Z,100254.64
2023-05-22T16:07:46.023Z,100247.02
2023-05-22T16:10:13.755Z,100242.95
2023-05-22T16:12:41.739Z,100245.39
2023-05-22T16:15:10.038Z,100245.09
2023-05-22T16:17:38.829Z,100241.67
2023-05-22T16:20:08.755Z,100243.00
2023-05-22T16:22:47.947Z,100243.08
2023-05-22T16:25:17.500Z,100243.27
2023-05-22T16:27:45.624Z,100238.08
2023-05-22T16:30:17.139Z,100240.14
2023-05-22T16:32:48.847Z,100242.64
2023-05-22T16:35:17.201Z,100245.32
2023-05-22T16:37:45.082Z,100245.30
2023-05-22T16:40:13.100Z,100245.56
2023-05-22T16:42:40.987Z,100243.26
2023-05-22T16:45:09.233Z,100242.43
2023-05-22T16:47:37.284Z,100248.50
2023-05-22T16:50:06.163Z,100248.20
2023-05-22T16:52:34.041Z,100254.21
2023-05-22T16:55:02.403Z,100256.48
2023-05-22T16:57:30.328Z,100256.26
2023-05-22T16:59:58.368Z,100258.41
2023-05-22T17:02:26.507Z,100258.98
2023-05-22T17:04:54.737Z,100258.76
2023-05-22T17:07:22.588Z,100257.95
2023-05-22T17:09:50.476Z,100255.81
2023-05-22T17:12:18.390Z,100259.42
2023-05-22T17:14:46.480Z,100258.38
2023-05-22T17:17:14.446Z,100261.12
2023-05-22T17:19:42.360Z,100262.39
2023-05-22T17:22:10.109Z,100257.84
2023-05-22T17:24:38.062Z,100260.92
2023-05-22T17:27:06.783Z,100264.91
2023-05-22T17:29:34.593Z,100262.55
2023-05-22T17:32:05.049Z,100264.82
2023-05-22T17:34:33.620Z,100261.95
2023-05-22T17:37:01.521Z,100260.66
2023-05-22T17:39:30.784Z,100255.31
2023-05-22T17:42:00.369Z,100256.02
2023-05-22T17:44:28.711Z,100253.60
2023-05-22T17:46:56.725Z,100252.20
2023-05-22T17:49:24.451Z,100253.51
2023-05-22T17:51:52.448Z,100251.17
2023-05-22T17:54:20.497Z,100255.46
2023-05-22T17:56:48.404Z,100257.54
2023-05-22T17:59:16.433Z,100257.04
2023-05-22T18:01:44.440Z,100257.44
2023-05-22T18:04:12.731Z,100256.98
2023-05-22T18:06:40.607Z,100255.10
2023-05-22T18:09:08.422Z,100252.75
2023-05-22T18:11:36.348Z,100249.89
2023-05-22T18:14:04.582Z,100252.34
2023-05-22T18:16:32.589Z,100250.56
2023-05-22T18:19:00.836Z,100251.04
2023-05-22T18:21:28.917Z,100245.63
2023-05-22T18:23:56.750Z,100246.64
2023-05-22T18:26:24.544Z,100242.08
2023-05-22T18:28:52.557Z,100246.94
2023-05-22T18:31:20.715Z,100244.88
2023-05-22T18:33:48.729Z,100247.14
2023-05-22T18:36:16.786Z,100245.45
2023-05-22T18:38:44.994Z,100246.72
2023-05-22T18:41:12.910Z,100251.38
2023-05-22T18:43:40.893Z,100248.80
2023-05-22T18:46:09.082Z,100255.17
2023-05-22T18:48:36.904Z,100252.94
2023-05-22T18:51:04.694Z,100261.82
2023-05-22T18:53:32.623Z,100264.26
2023-05-22T18:56:00.921Z,100265.86
2023-05-22T18:58:29.071Z,100262.11
2023-05-22T19:00:57.066Z,100259.41
2023-05-22T19:03:25.078Z,100259.73
2023-05-22T19:05:53.517Z,100259.61
2023-05-22T19:08:21.469Z,100258.06
2023-05-22T19:10:49.425Z,100261.48
2023-05-22T19:13:17.413Z,100261.66
2023-05-22T19:15:45.558Z,100262.40
2023-05-22T19:18:13.499Z,100260.08
2023-05-22T19:20:41.710Z,100263.19
2023-05-22T19:23:11.670Z,100262.82
2023-05-22T19:25:40.599Z,100262.13
2023-05-22T19:28:08.541Z,100264.41
2023-05-22T19:30:36.403Z,100264.48
2023-05-22T19:33:05.965Z,100258.73
2023-05-22T19:35:35.897Z,100261.86
2023-05-22T19:38:04.251Z,100265.77
2023-05-22T19:40:32.189Z,100265.31
2023-05-22T19:43:02.003Z,100266.70
2023-05-22T19:45:29.929Z,100268.58
2023-05-22T19:47:57.951Z,100272.31
2023-05-22T19:50:26.035Z,100272.05
2023-05-22T19:52:54.078Z,100272.55
2023-05-22T19:55:22.102Z,100274.48
2023-05-22T19:57:50.002Z,100277.23
2023-05-22T20:00:18.392Z,100278.08
2023-05-22T20:02:47.517Z,100277.46
2023-05-22T20:05:16.015Z,100274.89
2023-05-22T20:07:43.847Z,100272.75
2023-05-22T20:10:11.921Z,100275.05
2023-05-22T20:12:40.823Z,100271.93
2023-05-22T20:15:10.716Z,100268.64
2023-05-22T20:17:41.477Z,100272.06
2023-05-22T20:20:10.957Z,100271.69
2023-05-22T20:22:38.799Z,100268.69
2023-05-22T20:25:08.811Z,100267.73
2023-05-22T20:27:37.508Z,100267.91
2023-05-22T20:30:07.601Z,100267.33
2023-05-22T20:32:35.489Z,100265.00
2023-05-22T20:35:04.239Z,100265.77
2023-05-22T20:37:35.105Z,100265.15
2023-05-22T20:40:03.660Z,100266.45
2023-05-22T20:42:32.001Z,100266.75
2023-05-22T20:44:59.797Z,100266.14
2023-05-22T20:47:27.877Z,100264.55
2023-05-22T20:49:56.045Z,100265.22
2023-05-22T20:52:24.742Z,100269.42
2023-05-22T20:54:52.759Z,100266.38
2023-05-22T20:57:20.731Z,100266.77
2023-05-22T20:59:48.487Z,100264.88
2023-05-22T21:02:17.878Z,100262.08
2023-05-22T21:04:45.849Z,100263.20
2023-05-22T21:07:13.987Z,100262.68
2023-05-22T21:09:41.976Z,100266.80
2023-05-22T21:12:09.812Z,100265.58
2023-05-22T21:14:37.562Z,100269.02
2023-05-22T21:17:05.638Z,100266.96
2023-05-22T21:19:33.700Z,100267.51
2023-05-22T21:22:01.849Z,100267.06
2023-05-22T21:24:31.245Z,100267.98
2023-05-22T21:26:59.149Z,100261.86
2023-05-22T21:29:27.117Z,100258.48
2023-05-22T21:31:55.166Z,100261.04
2023-05-22T21:34:23.201Z,100258.64
2023-05-22T21:36:51.269Z,100260.31
2023-05-22T21:39:19.105Z,100263.27
2023-05-22T21:41:48.643Z,100264.16
2023-05-22T21:44:18.771Z,100261.53
2023-05-22T21:46:46.782Z,100261.05
2023-05-22T21:49:15.158Z,100257.86
2023-05-22T21:51:42.979Z,100253.98
2023-05-22T21:54:10.794Z,100256.98
2023-05-22T21:56:38.827Z,100255.06
2023-05-22T21:59:06.840Z,100253.41
2023-05-22T22:01:35.058Z,100250.41
2023-05-22T22:04:03.224Z,100251.58
2023-05-22T22:06:31.492Z,100250.34
2023-05-22T22:09:00.541Z,100251.52
2023-05-22T22:11:28.276Z,100253.80
2023-05-22T22:13:56.532Z,100251.34
2023-05-22T22:16:24.785Z,100252.13
2023-05-22T22:18:53.373Z,100251.84
2023-05-22T22:21:21.673Z,100251.92
2023-05-22T22:23:49.553Z,100247.88
2023-05-22T22:26:18.257Z,100251.66
2023-05-22T22:28:46.470Z,100254.70
2023-05-22T22:31:14.363Z,100253.95
2023-05-22T22:33:42.508Z,100250.02
2023-05-22T22:36:10.669Z,100252.04
2023-05-22T22:38:38.653Z,100246.23
2023-05-22T22:41:09.423Z,100241.32
2023-05-22T22:43:37.445Z,100241.39
2023-05-22T22:46:05.506Z,100240.44
2023-05-22T22:48:33.952Z,100240.25
2023-05-22T22:51:02.933Z,100234.33
2023-05-22T22:53:30.695Z,100237.39
2023-05-22T22:55:59.444Z,100234.57
2023-05-22T22:58:27.319Z,100234.94
2023-05-22T23:00:55.237Z,100239.73
2023-05-22T23:03:23.275Z,100235.95
2023-05-22T23:05:51.333Z,100234.90
2023-05-22T23:08:20.485Z,100233.42
2023-05-22T23:10:48.380Z,100231.83
2023-05-22T23:13:16.507Z,100233.29
2023-05-22T23:15:44.498Z,100233.77
2023-05-22T23:18:14.158Z,100230.02
2023-05-22T23:20:42.047Z,100231.22
2023-05-22T23:23:09.961Z,100223.55
2023-05-22T23:25:38.233Z,100224.59
2023-05-22T23:28:07.268Z,100225.39
2023-05-22T23:30:35.120Z,100220.17
2023-05-22T23:33:03.062Z,100221.19
2023-05-22T23:35:31.259Z,100219.83
2023-05-22T23:37:59.274Z,100217.52
2023-05-22T23:40:27.130Z,100216.76
2023-05-22T23:42:54.884Z,100215.23
2023-05-22T23:45:22.615Z,100211.94
2023-05-22T23:47:50.675Z,100210.17
2023-05-22T23:50:18.393Z,100207.02
2023-05-22T23:52:48.417Z,100205.70
2023-05-22T23:55:16.329Z,100203.48
2023-05-22T23:57:44.202Z,100202.59
